sensor_id;sensor_type;location;lat;lon;timestamp;temperature;humidity
19567;DHT22;9930;49.240;8.548;2024-03-08T00:00:06;8.90;68.80
19567;DHT22;9930;49.240;8.548;2024-03-08T00:02:37;8.80;68.80
19567;DHT22;9930;49.240;8.548;2024-03-08T00:05:04;8.80;68.80
19567;DHT22;9930;49.240;8.548;2024-03-08T00:07:31;8.70;68.70
19567;DHT22;9930;49.240;8.548;2024-03-08T00:09:57;8.70;68.80
19567;DHT22;9930;49.240;8.548;2024-03-08T00:12:23;8.70;68.80
19567;DHT22;9930;49.240;8.548;2024-03-08T00:14:50;8.60;68.80
19567;DHT22;9930;49.240;8.548;2024-03-08T00:17:15;8.60;68.90
19567;DHT22;9930;49.240;8.548;2024-03-08T00:19:41;8.60;69.00
19567;DHT22;9930;49.240;8.548;2024-03-08T00:22:07;8.50;69.00
19567;DHT22;9930;49.240;8.548;2024-03-08T00:24:33;8.50;69.00
19567;DHT22;9930;49.240;8.548;2024-03-08T00:27:02;8.40;68.90
19567;DHT22;9930;49.240;8.548;2024-03-08T00:29:30;8.40;69.00
19567;DHT22;9930;49.240;8.548;2024-03-08T00:31:55;8.40;69.00
19567;DHT22;9930;49.240;8.548;2024-03-08T00:34:21;8.30;69.00
19567;DHT22;9930;49.240;8.548;2024-03-08T00:36:47;8.30;69.00
19567;DHT22;9930;49.240;8.548;2024-03-08T00:39:13;8.30;69.00
19567;DHT22;9930;49.240;8.548;2024-03-08T00:41:38;8.30;69.10
19567;DHT22;9930;49.240;8.548;2024-03-08T00:44:04;8.20;69.10
19567;DHT22;9930;49.240;8.548;2024-03-08T00:46:30;8.20;69.10
19567;DHT22;9930;49.240;8.548;2024-03-08T00:48:57;8.20;69.10
19567;DHT22;9930;49.240;8.548;2024-03-08T00:51:22;8.10;69.10
19567;DHT22;9930;49.240;8.548;2024-03-08T00:53:48;8.10;69.10
19567;DHT22;9930;49.240;8.548;2024-03-08T00:56:14;8.10;69.10
19567;DHT22;9930;49.240;8.548;2024-03-08T00:58:39;8.10;69.10
19567;DHT22;9930;49.240;8.548;2024-03-08T01:01:05;8.00;69.10
19567;DHT22;9930;49.240;8.548;2024-03-08T01:03:31;8.00;69.10
19567;DHT22;9930;49.240;8.548;2024-03-08T01:05:57;8.00;69.10
19567;DHT22;9930;49.240;8.548;2024-03-08T01:08:23;8.00;69.10
19567;DHT22;9930;49.240;8.548;2024-03-08T01:10:49;7.90;69.10
19567;DHT22;9930;49.240;8.548;2024-03-08T01:13:17;7.90;69.20
19567;DHT22;9930;49.240;8.548;2024-03-08T01:15:44;7.90;69.20
19567;DHT22;9930;49.240;8.548;2024-03-08T01:18:11;7.80;69.10
19567;DHT22;9930;49.240;8.548;2024-03-08T01:20:37;7.80;69.20
19567;DHT22;9930;49.240;8.548;2024-03-08T01:23:03;7.80;69.30
19567;DHT22;9930;49.240;8.548;2024-03-08T01:25:33;7.80;69.20
19567;DHT22;9930;49.240;8.548;2024-03-08T01:28:01;7.70;69.20
19567;DHT22;9930;49.240;8.548;2024-03-08T01:30:27;7.70;69.20
19567;DHT22;9930;49.240;8.548;2024-03-08T01:32:53;7.70;69.30
19567;DHT22;9930;49.240;8.548;2024-03-08T01:35:19;7.60;69.30
19567;DHT22;9930;49.240;8.548;2024-03-08T01:37:47;7.60;69.40
19567;DHT22;9930;49.240;8.548;2024-03-08T01:40:15;7.60;69.40
19567;DHT22;9930;49.240;8.548;2024-03-08T01:42:42;7.60;69.40
19567;DHT22;9930;49.240;8.548;2024-03-08T01:45:08;7.50;69.40
19567;DHT22;9930;49.240;8.548;2024-03-08T01:47:35;7.50;69.50
19567;DHT22;9930;49.240;8.548;2024-03-08T01:50:02;7.50;69.40
19567;DHT22;9930;49.240;8.548;2024-03-08T01:52:32;7.50;69.50
19567;DHT22;9930;49.240;8.548;2024-03-08T01:55:03;7.50;69.40
19567;DHT22;9930;49.240;8.548;2024-03-08T01:57:32;7.40;69.40
19567;DHT22;9930;49.240;8.548;2024-03-08T02:00:01;7.40;69.50
19567;DHT22;9930;49.240;8.548;2024-03-08T02:02:32;7.40;69.50
19567;DHT22;9930;49.240;8.548;2024-03-08T02:05:00;7.40;69.60
19567;DHT22;9930;49.240;8.548;2024-03-08T02:07:26;7.30;69.60
19567;DHT22;9930;49.240;8.548;2024-03-08T02:09:52;7.30;69.50
19567;DHT22;9930;49.240;8.548;2024-03-08T02:12:18;7.30;69.70
19567;DHT22;9930;49.240;8.548;2024-03-08T02:14:46;7.30;69.70
19567;DHT22;9930;49.240;8.548;2024-03-08T02:17:12;7.30;69.80
19567;DHT22;9930;49.240;8.548;2024-03-08T02:19:38;7.20;69.80
19567;DHT22;9930;49.240;8.548;2024-03-08T02:22:05;7.20;69.70
19567;DHT22;9930;49.240;8.548;2024-03-08T02:24:32;7.20;69.80
19567;DHT22;9930;49.240;8.548;2024-03-08T02:26:58;7.20;69.70
19567;DHT22;9930;49.240;8.548;2024-03-08T02:29:24;7.10;69.80
19567;DHT22;9930;49.240;8.548;2024-03-08T02:31:53;7.10;69.80
19567;DHT22;9930;49.240;8.548;2024-03-08T02:34:18;7.10;69.80
19567;DHT22;9930;49.240;8.548;2024-03-08T02:36:45;7.10;69.90
19567;DHT22;9930;49.240;8.548;2024-03-08T02:39:12;7.00;69.90
19567;DHT22;9930;49.240;8.548;2024-03-08T02:41:37;7.00;69.90
19567;DHT22;9930;49.240;8.548;2024-03-08T02:44:03;7.00;70.00
19567;DHT22;9930;49.240;8.548;2024-03-08T02:46:30;7.00;70.00
19567;DHT22;9930;49.240;8.548;2024-03-08T02:48:56;6.90;70.10
19567;DHT22;9930;49.240;8.548;2024-03-08T02:51:22;6.90;70.10
19567;DHT22;9930;49.240;8.548;2024-03-08T02:53:48;6.90;69.90
19567;DHT22;9930;49.240;8.548;2024-03-08T02:56:17;6.90;70.00
19567;DHT22;9930;49.240;8.548;2024-03-08T02:58:43;6.80;70.00
19567;DHT22;9930;49.240;8.548;2024-03-08T03:01:09;6.80;70.00
19567;DHT22;9930;49.240;8.548;2024-03-08T03:03:36;6.80;70.10
19567;DHT22;9930;49.240;8.548;2024-03-08T03:06:02;6.80;70.20
19567;DHT22;9930;49.240;8.548;2024-03-08T03:08:28;6.80;70.20
19567;DHT22;9930;49.240;8.548;2024-03-08T03:10:54;6.80;70.30
19567;DHT22;9930;49.240;8.548;2024-03-08T03:13:22;6.70;70.10
19567;DHT22;9930;49.240;8.548;2024-03-08T03:15:48;6.70;70.20
19567;DHT22;9930;49.240;8.548;2024-03-08T03:18:14;6.70;70.20
19567;DHT22;9930;49.240;8.548;2024-03-08T03:20:41;6.70;70.30
19567;DHT22;9930;49.240;8.548;2024-03-08T03:23:08;6.70;70.30
19567;DHT22;9930;49.240;8.548;2024-03-08T03:25:35;6.70;70.30
19567;DHT22;9930;49.240;8.548;2024-03-08T03:28:01;6.60;70.30
19567;DHT22;9930;49.240;8.548;2024-03-08T03:30:28;6.60;70.50
19567;DHT22;9930;49.240;8.548;2024-03-08T03:33:01;6.60;70.50
19567;DHT22;9930;49.240;8.548;2024-03-08T03:35:32;6.60;70.40
19567;DHT22;9930;49.240;8.548;2024-03-08T03:37:58;6.50;70.50
19567;DHT22;9930;49.240;8.548;2024-03-08T03:40:42;6.50;70.60
19567;DHT22;9930;49.240;8.548;2024-03-08T03:43:10;6.50;70.60
19567;DHT22;9930;49.240;8.548;2024-03-08T03:45:36;6.50;70.60
19567;DHT22;9930;49.240;8.548;2024-03-08T03:48:03;6.50;70.70
19567;DHT22;9930;49.240;8.548;2024-03-08T03:50:31;6.40;70.70
19567;DHT22;9930;49.240;8.548;2024-03-08T03:53:00;6.40;70.70
19567;DHT22;9930;49.240;8.548;2024-03-08T03:55:25;6.40;70.80
19567;DHT22;9930;49.240;8.548;2024-03-08T03:57:52;6.40;70.80
19567;DHT22;9930;49.240;8.548;2024-03-08T04:00:18;6.40;70.80
19567;DHT22;9930;49.240;8.548;2024-03-08T04:02:44;6.40;70.90
19567;DHT22;9930;49.240;8.548;2024-03-08T04:05:10;6.30;70.90
19567;DHT22;9930;49.240;8.548;2024-03-08T04:07:37;6.40;70.90
19567;DHT22;9930;49.240;8.548;2024-03-08T04:10:06;6.30;70.90
19567;DHT22;9930;49.240;8.548;2024-03-08T04:12:33;6.30;70.90
19567;DHT22;9930;49.240;8.548;2024-03-08T04:15:00;6.30;70.90
19567;DHT22;9930;49.240;8.548;2024-03-08T04:17:26;6.30;71.00
19567;DHT22;9930;49.240;8.548;2024-03-08T04:19:52;6.30;71.10
19567;DHT22;9930;49.240;8.548;2024-03-08T04:22:19;6.20;71.00
19567;DHT22;9930;49.240;8.548;2024-03-08T04:24:45;6.20;71.00
19567;DHT22;9930;49.240;8.548;2024-03-08T04:27:12;6.20;71.00
19567;DHT22;9930;49.240;8.548;2024-03-08T04:29:38;6.20;71.10
19567;DHT22;9930;49.240;8.548;2024-03-08T04:32:06;6.20;71.10
19567;DHT22;9930;49.240;8.548;2024-03-08T04:34:34;6.20;71.10
19567;DHT22;9930;49.240;8.548;2024-03-08T04:37:01;6.10;71.20
19567;DHT22;9930;49.240;8.548;2024-03-08T04:39:30;6.10;71.30
19567;DHT22;9930;49.240;8.548;2024-03-08T04:42:02;6.10;71.20
19567;DHT22;9930;49.240;8.548;2024-03-08T04:44:36;6.10;71.30
19567;DHT22;9930;49.240;8.548;2024-03-08T04:47:06;6.10;71.30
19567;DHT22;9930;49.240;8.548;2024-03-08T04:49:32;6.10;71.40
19567;DHT22;9930;49.240;8.548;2024-03-08T04:52:02;6.10;71.40
19567;DHT22;9930;49.240;8.548;2024-03-08T04:54:29;6.10;71.30
19567;DHT22;9930;49.240;8.548;2024-03-08T04:56:55;6.00;71.30
19567;DHT22;9930;49.240;8.548;2024-03-08T04:59:21;6.00;71.30
19567;DHT22;9930;49.240;8.548;2024-03-08T05:01:47;6.00;71.50
19567;DHT22;9930;49.240;8.548;2024-03-08T05:04:13;6.00;71.50
19567;DHT22;9930;49.240;8.548;2024-03-08T05:06:39;6.00;71.50
19567;DHT22;9930;49.240;8.548;2024-03-08T05:09:05;6.00;71.60
19567;DHT22;9930;49.240;8.548;2024-03-08T05:11:51;6.00;71.70
19567;DHT22;9930;49.240;8.548;2024-03-08T05:14:17;6.10;71.70
19567;DHT22;9930;49.240;8.548;2024-03-08T05:16:46;5.90;71.60
19567;DHT22;9930;49.240;8.548;2024-03-08T05:19:16;5.90;71.50
19567;DHT22;9930;49.240;8.548;2024-03-08T05:21:51;5.90;71.70
19567;DHT22;9930;49.240;8.548;2024-03-08T05:24:20;5.90;71.90
19567;DHT22;9930;49.240;8.548;2024-03-08T05:26:46;5.90;71.80
19567;DHT22;9930;49.240;8.548;2024-03-08T05:29:13;5.90;71.80
19567;DHT22;9930;49.240;8.548;2024-03-08T05:31:49;5.90;71.80
19567;DHT22;9930;49.240;8.548;2024-03-08T05:34:18;5.90;71.80
19567;DHT22;9930;49.240;8.548;2024-03-08T05:36:48;5.90;71.80
19567;DHT22;9930;49.240;8.548;2024-03-08T05:39:17;5.80;71.70
19567;DHT22;9930;49.240;8.548;2024-03-08T05:41:46;5.80;71.90
19567;DHT22;9930;49.240;8.548;2024-03-08T05:44:12;5.80;72.00
19567;DHT22;9930;49.240;8.548;2024-03-08T05:46:39;5.80;72.00
19567;DHT22;9930;49.240;8.548;2024-03-08T05:49:06;5.80;72.10
19567;DHT22;9930;49.240;8.548;2024-03-08T05:51:33;5.80;72.10
19567;DHT22;9930;49.240;8.548;2024-03-08T05:54:05;5.80;72.00
19567;DHT22;9930;49.240;8.548;2024-03-08T05:56:35;5.80;72.10
19567;DHT22;9930;49.240;8.548;2024-03-08T05:59:02;5.80;72.00
19567;DHT22;9930;49.240;8.548;2024-03-08T06:01:28;5.80;72.20
19567;DHT22;9930;49.240;8.548;2024-03-08T06:03:55;5.80;72.10
19567;DHT22;9930;49.240;8.548;2024-03-08T06:06:23;5.80;72.90
19567;DHT22;9930;49.240;8.548;2024-03-08T06:08:50;5.80;72.30
19567;DHT22;9930;49.240;8.548;2024-03-08T06:11:16;5.80;72.00
19567;DHT22;9930;49.240;8.548;2024-03-08T06:13:47;5.80;72.30
19567;DHT22;9930;49.240;8.548;2024-03-08T06:16:13;5.80;72.20
19567;DHT22;9930;49.240;8.548;2024-03-08T06:18:39;5.80;72.40
19567;DHT22;9930;49.240;8.548;2024-03-08T06:21:05;5.80;72.40
19567;DHT22;9930;49.240;8.548;2024-03-08T06:23:35;5.80;72.30
19567;DHT22;9930;49.240;8.548;2024-03-08T06:26:04;5.80;72.40
19567;DHT22;9930;49.240;8.548;2024-03-08T06:28:31;5.80;72.40
19567;DHT22;9930;49.240;8.548;2024-03-08T06:30:58;5.90;72.50
19567;DHT22;9930;49.240;8.548;2024-03-08T06:33:25;5.90;72.50
19567;DHT22;9930;49.240;8.548;2024-03-08T06:35:54;5.90;72.50
19567;DHT22;9930;49.240;8.548;2024-03-08T06:38:23;5.90;72.70
19567;DHT22;9930;49.240;8.548;2024-03-08T06:40:49;5.90;72.50
19567;DHT22;9930;49.240;8.548;2024-03-08T06:43:17;5.90;72.70
19567;DHT22;9930;49.240;8.548;2024-03-08T06:45:44;5.90;72.60
19567;DHT22;9930;49.240;8.548;2024-03-08T06:48:15;6.00;73.00
19567;DHT22;9930;49.240;8.548;2024-03-08T06:50:44;6.00;72.90
19567;DHT22;9930;49.240;8.548;2024-03-08T06:53:11;6.10;73.10
19567;DHT22;9930;49.240;8.548;2024-03-08T06:55:37;6.10;73.10
19567;DHT22;9930;49.240;8.548;2024-03-08T06:58:04;6.10;73.00
19567;DHT22;9930;49.240;8.548;2024-03-08T07:00:30;6.20;72.90
19567;DHT22;9930;49.240;8.548;2024-03-08T07:02:56;6.30;72.90
19567;DHT22;9930;49.240;8.548;2024-03-08T07:05:29;6.30;72.80
19567;DHT22;9930;49.240;8.548;2024-03-08T07:07:56;6.30;72.80
19567;DHT22;9930;49.240;8.548;2024-03-08T07:10:22;6.30;72.80
19567;DHT22;9930;49.240;8.548;2024-03-08T07:12:51;6.40;72.80
19567;DHT22;9930;49.240;8.548;2024-03-08T07:15:21;6.40;72.90
19567;DHT22;9930;49.240;8.548;2024-03-08T07:17:49;6.40;73.00
19567;DHT22;9930;49.240;8.548;2024-03-08T07:20:15;6.50;73.10
19567;DHT22;9930;49.240;8.548;2024-03-08T07:22:47;6.60;73.30
19567;DHT22;9930;49.240;8.548;2024-03-08T07:25:14;6.60;73.30
19567;DHT22;9930;49.240;8.548;2024-03-08T07:27:53;6.70;73.30
19567;DHT22;9930;49.240;8.548;2024-03-08T07:30:24;6.90;73.30
19567;DHT22;9930;49.240;8.548;2024-03-08T07:33:08;6.80;73.20
19567;DHT22;9930;49.240;8.548;2024-03-08T07:35:37;6.90;73.20
19567;DHT22;9930;49.240;8.548;2024-03-08T07:38:05;7.00;73.10
19567;DHT22;9930;49.240;8.548;2024-03-08T07:40:33;7.10;73.00
19567;DHT22;9930;49.240;8.548;2024-03-08T07:43:12;7.20;73.00
19567;DHT22;9930;49.240;8.548;2024-03-08T07:45:38;7.30;72.90
19567;DHT22;9930;49.240;8.548;2024-03-08T07:48:05;7.30;72.80
19567;DHT22;9930;49.240;8.548;2024-03-08T07:50:39;7.30;72.70
19567;DHT22;9930;49.240;8.548;2024-03-08T07:53:06;7.40;72.80
19567;DHT22;9930;49.240;8.548;2024-03-08T07:55:36;7.50;72.70
19567;DHT22;9930;49.240;8.548;2024-03-08T07:58:02;7.60;72.60
19567;DHT22;9930;49.240;8.548;2024-03-08T08:00:31;7.60;72.40
19567;DHT22;9930;49.240;8.548;2024-03-08T08:02:57;7.60;72.40
19567;DHT22;9930;49.240;8.548;2024-03-08T08:05:23;7.70;72.40
19567;DHT22;9930;49.240;8.548;2024-03-08T08:07:48;7.80;72.30
19567;DHT22;9930;49.240;8.548;2024-03-08T08:10:15;7.80;72.20
19567;DHT22;9930;49.240;8.548;2024-03-08T08:12:50;7.80;72.20
19567;DHT22;9930;49.240;8.548;2024-03-08T08:15:17;7.90;72.20
19567;DHT22;9930;49.240;8.548;2024-03-08T08:17:43;8.00;72.30
19567;DHT22;9930;49.240;8.548;2024-03-08T08:20:11;8.00;72.20
19567;DHT22;9930;49.240;8.548;2024-03-08T08:22:42;8.10;72.20
19567;DHT22;9930;49.240;8.548;2024-03-08T08:25:10;8.20;72.00
19567;DHT22;9930;49.240;8.548;2024-03-08T08:27:45;8.20;72.00
19567;DHT22;9930;49.240;8.548;2024-03-08T08:30:12;8.30;71.90
19567;DHT22;9930;49.240;8.548;2024-03-08T08:32:39;8.30;71.80
19567;DHT22;9930;49.240;8.548;2024-03-08T08:35:06;8.40;71.80
19567;DHT22;9930;49.240;8.548;2024-03-08T08:37:33;8.50;71.70
19567;DHT22;9930;49.240;8.548;2024-03-08T08:40:01;8.50;71.90
19567;DHT22;9930;49.240;8.548;2024-03-08T08:42:31;8.60;71.70
19567;DHT22;9930;49.240;8.548;2024-03-08T08:44:57;8.60;71.60
19567;DHT22;9930;49.240;8.548;2024-03-08T08:47:23;8.70;71.50
19567;DHT22;9930;49.240;8.548;2024-03-08T08:49:49;8.80;71.50
19567;DHT22;9930;49.240;8.548;2024-03-08T08:52:16;8.80;71.50
19567;DHT22;9930;49.240;8.548;2024-03-08T08:54:42;8.90;71.30
19567;DHT22;9930;49.240;8.548;2024-03-08T08:57:10;8.90;71.10
19567;DHT22;9930;49.240;8.548;2024-03-08T08:59:36;9.00;71.10
19567;DHT22;9930;49.240;8.548;2024-03-08T09:02:07;9.00;71.20
19567;DHT22;9930;49.240;8.548;2024-03-08T09:04:34;9.10;71.20
19567;DHT22;9930;49.240;8.548;2024-03-08T09:07:01;9.10;70.90
19567;DHT22;9930;49.240;8.548;2024-03-08T09:09:27;9.20;70.90
19567;DHT22;9930;49.240;8.548;2024-03-08T09:11:53;9.20;70.80
19567;DHT22;9930;49.240;8.548;2024-03-08T09:14:19;9.30;70.90
19567;DHT22;9930;49.240;8.548;2024-03-08T09:16:46;9.30;70.70
19567;DHT22;9930;49.240;8.548;2024-03-08T09:19:13;9.30;70.60
19567;DHT22;9930;49.240;8.548;2024-03-08T09:21:39;9.40;70.40
19567;DHT22;9930;49.240;8.548;2024-03-08T09:24:06;9.40;70.20
19567;DHT22;9930;49.240;8.548;2024-03-08T09:26:34;9.30;70.10
19567;DHT22;9930;49.240;8.548;2024-03-08T09:29:00;9.40;70.10
19567;DHT22;9930;49.240;8.548;2024-03-08T09:31:26;9.40;70.00
19567;DHT22;9930;49.240;8.548;2024-03-08T09:33:51;9.40;70.00
19567;DHT22;9930;49.240;8.548;2024-03-08T09:36:17;9.40;70.20
19567;DHT22;9930;49.240;8.548;2024-03-08T09:38:43;9.50;70.20
19567;DHT22;9930;49.240;8.548;2024-03-08T09:41:09;9.50;70.10
19567;DHT22;9930;49.240;8.548;2024-03-08T09:43:38;9.50;70.10
19567;DHT22;9930;49.240;8.548;2024-03-08T09:46:04;9.60;70.00
19567;DHT22;9930;49.240;8.548;2024-03-08T09:48:32;9.60;69.80
19567;DHT22;9930;49.240;8.548;2024-03-08T09:50:58;9.60;69.60
19567;DHT22;9930;49.240;8.548;2024-03-08T09:53:24;9.60;69.60
19567;DHT22;9930;49.240;8.548;2024-03-08T09:55:52;9.60;69.50
19567;DHT22;9930;49.240;8.548;2024-03-08T09:58:18;9.60;69.30
19567;DHT22;9930;49.240;8.548;2024-03-08T10:00:53;9.60;69.50
19567;DHT22;9930;49.240;8.548;2024-03-08T10:03:22;9.60;69.60
19567;DHT22;9930;49.240;8.548;2024-03-08T10:05:48;9.70;69.70
19567;DHT22;9930;49.240;8.548;2024-03-08T10:08:14;9.70;69.70
19567;DHT22;9930;49.240;8.548;2024-03-08T10:10:40;9.70;69.70
19567;DHT22;9930;49.240;8.548;2024-03-08T10:13:08;9.70;69.50
19567;DHT22;9930;49.240;8.548;2024-03-08T10:15:37;9.80;69.50
19567;DHT22;9930;49.240;8.548;2024-03-08T10:18:05;9.80;69.40
19567;DHT22;9930;49.240;8.548;2024-03-08T10:20:32;9.80;69.30
19567;DHT22;9930;49.240;8.548;2024-03-08T10:23:03;9.80;69.40
19567;DHT22;9930;49.240;8.548;2024-03-08T10:25:31;9.80;69.20
19567;DHT22;9930;49.240;8.548;2024-03-08T10:27:57;9.90;69.40
19567;DHT22;9930;49.240;8.548;2024-03-08T10:30:23;9.90;69.30
19567;DHT22;9930;49.240;8.548;2024-03-08T10:32:49;9.90;69.20
19567;DHT22;9930;49.240;8.548;2024-03-08T10:35:15;9.90;69.10
19567;DHT22;9930;49.240;8.548;2024-03-08T10:37:48;9.90;69.20
19567;DHT22;9930;49.240;8.548;2024-03-08T10:40:19;9.90;69.10
19567;DHT22;9930;49.240;8.548;2024-03-08T10:43:05;10.00;69.20
19567;DHT22;9930;49.240;8.548;2024-03-08T10:45:44;10.00;69.10
19567;DHT22;9930;49.240;8.548;2024-03-08T10:48:29;10.00;69.20
19567;DHT22;9930;49.240;8.548;2024-03-08T10:51:02;10.10;68.90
19567;DHT22;9930;49.240;8.548;2024-03-08T10:53:30;10.10;69.10
19567;DHT22;9930;49.240;8.548;2024-03-08T10:55:57;10.20;69.00
19567;DHT22;9930;49.240;8.548;2024-03-08T10:58:25;10.20;68.60
19567;DHT22;9930;49.240;8.548;2024-03-08T11:00:55;10.20;68.80
19567;DHT22;9930;49.240;8.548;2024-03-08T11:08:42;10.30;68.70
19567;DHT22;9930;49.240;8.548;2024-03-08T11:13:56;10.40;67.90
19567;DHT22;9930;49.240;8.548;2024-03-08T11:21:43;10.50;68.10
19567;DHT22;9930;49.240;8.548;2024-03-08T11:24:13;10.50;68.10
19567;DHT22;9930;49.240;8.548;2024-03-08T11:26:40;10.60;68.30
19567;DHT22;9930;49.240;8.548;2024-03-08T11:29:38;10.70;68.60
19567;DHT22;9930;49.240;8.548;2024-03-08T11:34:37;10.80;68.00
19567;DHT22;9930;49.240;8.548;2024-03-08T11:37:19;10.80;68.00
19567;DHT22;9930;49.240;8.548;2024-03-08T11:39:47;10.90;67.60
19567;DHT22;9930;49.240;8.548;2024-03-08T11:42:18;10.90;67.80
19567;DHT22;9930;49.240;8.548;2024-03-08T11:44:45;11.00;67.90
19567;DHT22;9930;49.240;8.548;2024-03-08T11:47:13;11.00;67.50
19567;DHT22;9930;49.240;8.548;2024-03-08T11:49:40;11.10;67.50
19567;DHT22;9930;49.240;8.548;2024-03-08T11:52:17;11.10;67.50
19567;DHT22;9930;49.240;8.548;2024-03-08T11:54:51;11.10;67.30
19567;DHT22;9930;49.240;8.548;2024-03-08T11:57:23;11.20;67.20
19567;DHT22;9930;49.240;8.548;2024-03-08T11:59:56;11.20;66.60
19567;DHT22;9930;49.240;8.548;2024-03-08T12:02:32;11.30;66.40
19567;DHT22;9930;49.240;8.548;2024-03-08T12:05:01;11.30;66.60
19567;DHT22;9930;49.240;8.548;2024-03-08T12:07:35;11.40;66.60
19567;DHT22;9930;49.240;8.548;2024-03-08T12:12:49;11.40;66.30
19567;DHT22;9930;49.240;8.548;2024-03-08T12:15:23;11.40;66.30
19567;DHT22;9930;49.240;8.548;2024-03-08T12:17:51;11.40;66.50
19567;DHT22;9930;49.240;8.548;2024-03-08T12:20:22;11.40;66.20
19567;DHT22;9930;49.240;8.548;2024-03-08T12:22:52;11.40;66.60
19567;DHT22;9930;49.240;8.548;2024-03-08T12:25:19;11.50;66.60
19567;DHT22;9930;49.240;8.548;2024-03-08T12:27:45;11.50;66.50
19567;DHT22;9930;49.240;8.548;2024-03-08T12:30:23;11.60;66.50
19567;DHT22;9930;49.240;8.548;2024-03-08T12:32:57;11.50;66.00
19567;DHT22;9930;49.240;8.548;2024-03-08T12:35:28;11.60;66.00
19567;DHT22;9930;49.240;8.548;2024-03-08T12:37:56;11.50;65.60
19567;DHT22;9930;49.240;8.548;2024-03-08T12:40:30;11.60;66.00
19567;DHT22;9930;49.240;8.548;2024-03-08T12:43:01;11.60;65.80
19567;DHT22;9930;49.240;8.548;2024-03-08T12:45:31;11.60;66.10
19567;DHT22;9930;49.240;8.548;2024-03-08T12:47:58;11.70;66.20
19567;DHT22;9930;49.240;8.548;2024-03-08T12:50:25;11.70;66.30
19567;DHT22;9930;49.240;8.548;2024-03-08T12:52:51;11.80;66.20
19567;DHT22;9930;49.240;8.548;2024-03-08T12:55:19;11.80;66.10
19567;DHT22;9930;49.240;8.548;2024-03-08T12:57:45;11.80;66.00
19567;DHT22;9930;49.240;8.548;2024-03-08T13:00:12;11.80;65.90
19567;DHT22;9930;49.240;8.548;2024-03-08T13:02:47;11.80;65.70
19567;DHT22;9930;49.240;8.548;2024-03-08T13:05:13;11.90;65.80
19567;DHT22;9930;49.240;8.548;2024-03-08T13:07:42;11.90;65.80
19567;DHT22;9930;49.240;8.548;2024-03-08T13:10:15;11.90;65.70
19567;DHT22;9930;49.240;8.548;2024-03-08T13:12:44;11.90;65.70
19567;DHT22;9930;49.240;8.548;2024-03-08T13:15:11;11.90;65.70
19567;DHT22;9930;49.240;8.548;2024-03-08T13:17:41;12.00;65.80
19567;DHT22;9930;49.240;8.548;2024-03-08T13:20:08;12.00;65.90
19567;DHT22;9930;49.240;8.548;2024-03-08T13:22:35;12.00;65.50
19567;DHT22;9930;49.240;8.548;2024-03-08T13:25:02;12.10;65.60
19567;DHT22;9930;49.240;8.548;2024-03-08T13:27:28;12.10;65.50
19567;DHT22;9930;49.240;8.548;2024-03-08T13:29:54;12.20;65.50
19567;DHT22;9930;49.240;8.548;2024-03-08T13:32:20;12.20;65.50
19567;DHT22;9930;49.240;8.548;2024-03-08T13:34:46;12.20;65.40
19567;DHT22;9930;49.240;8.548;2024-03-08T13:37:13;12.20;65.50
19567;DHT22;9930;49.240;8.548;2024-03-08T13:39:41;12.30;65.40
19567;DHT22;9930;49.240;8.548;2024-03-08T13:42:15;12.30;65.10
19567;DHT22;9930;49.240;8.548;2024-03-08T13:44:45;12.30;64.80
19567;DHT22;9930;49.240;8.548;2024-03-08T13:47:16;12.30;64.90
19567;DHT22;9930;49.240;8.548;2024-03-08T13:49:43;12.30;65.00
19567;DHT22;9930;49.240;8.548;2024-03-08T13:52:09;12.30;65.00
19567;DHT22;9930;49.240;8.548;2024-03-08T13:54:36;12.30;65.00
19567;DHT22;9930;49.240;8.548;2024-03-08T13:57:04;12.40;64.80
19567;DHT22;9930;49.240;8.548;2024-03-08T13:59:31;12.40;64.90
19567;DHT22;9930;49.240;8.548;2024-03-08T14:01:59;12.40;64.70
19567;DHT22;9930;49.240;8.548;2024-03-08T14:04:27;12.40;64.80
19567;DHT22;9930;49.240;8.548;2024-03-08T14:06:53;12.40;64.80
19567;DHT22;9930;49.240;8.548;2024-03-08T14:09:29;12.50;64.90
19567;DHT22;9930;49.240;8.548;2024-03-08T14:11:56;12.50;64.90
19567;DHT22;9930;49.240;8.548;2024-03-08T14:14:22;12.50;64.70
19567;DHT22;9930;49.240;8.548;2024-03-08T14:16:49;12.50;64.50
19567;DHT22;9930;49.240;8.548;2024-03-08T14:19:21;12.50;64.50
19567;DHT22;9930;49.240;8.548;2024-03-08T14:21:47;12.60;64.60
19567;DHT22;9930;49.240;8.548;2024-03-08T14:24:19;12.60;64.60
19567;DHT22;9930;49.240;8.548;2024-03-08T14:26:45;12.60;64.50
19567;DHT22;9930;49.240;8.548;2024-03-08T14:29:14;12.70;65.20
19567;DHT22;9930;49.240;8.548;2024-03-08T14:31:40;12.70;64.30
19567;DHT22;9930;49.240;8.548;2024-03-08T14:34:07;12.70;64.10
19567;DHT22;9930;49.240;8.548;2024-03-08T14:36:33;12.80;63.70
19567;DHT22;9930;49.240;8.548;2024-03-08T14:38:58;12.80;64.10
19567;DHT22;9930;49.240;8.548;2024-03-08T14:41:24;12.80;64.00
19567;DHT22;9930;49.240;8.548;2024-03-08T14:43:50;12.80;63.90
19567;DHT22;9930;49.240;8.548;2024-03-08T14:46:18;12.80;63.90
19567;DHT22;9930;49.240;8.548;2024-03-08T14:48:52;12.90;63.90
19567;DHT22;9930;49.240;8.548;2024-03-08T14:51:19;12.80;63.60
19567;DHT22;9930;49.240;8.548;2024-03-08T14:53:48;12.90;63.80
19567;DHT22;9930;49.240;8.548;2024-03-08T14:56:15;12.90;63.80
19567;DHT22;9930;49.240;8.548;2024-03-08T14:58:45;12.90;63.80
19567;DHT22;9930;49.240;8.548;2024-03-08T15:01:15;12.90;63.60
19567;DHT22;9930;49.240;8.548;2024-03-08T15:03:41;12.90;63.70
19567;DHT22;9930;49.240;8.548;2024-03-08T15:06:10;13.00;63.60
19567;DHT22;9930;49.240;8.548;2024-03-08T15:08:38;13.00;63.70
19567;DHT22;9930;49.240;8.548;2024-03-08T15:11:07;13.00;63.50
19567;DHT22;9930;49.240;8.548;2024-03-08T15:13:34;13.00;63.30
19567;DHT22;9930;49.240;8.548;2024-03-08T15:16:08;13.00;63.30
19567;DHT22;9930;49.240;8.548;2024-03-08T15:18:35;13.00;63.30
19567;DHT22;9930;49.240;8.548;2024-03-08T15:21:07;12.90;63.20
19567;DHT22;9930;49.240;8.548;2024-03-08T15:23:36;13.00;63.00
19567;DHT22;9930;49.240;8.548;2024-03-08T15:26:02;12.90;63.00
19567;DHT22;9930;49.240;8.548;2024-03-08T15:28:29;13.00;63.30
19567;DHT22;9930;49.240;8.548;2024-03-08T15:31:03;12.90;63.20
19567;DHT22;9930;49.240;8.548;2024-03-08T15:33:37;12.90;63.20
19567;DHT22;9930;49.240;8.548;2024-03-08T15:36:22;12.90;62.90
19567;DHT22;9930;49.240;8.548;2024-03-08T15:38:48;12.90;63.10
19567;DHT22;9930;49.240;8.548;2024-03-08T15:41:14;12.90;63.10
19567;DHT22;9930;49.240;8.548;2024-03-08T15:43:40;12.90;63.10
19567;DHT22;9930;49.240;8.548;2024-03-08T15:46:07;12.90;63.80
19567;DHT22;9930;49.240;8.548;2024-03-08T15:48:34;12.90;62.90
19567;DHT22;9930;49.240;8.548;2024-03-08T15:51:04;12.90;63.10
19567;DHT22;9930;49.240;8.548;2024-03-08T15:53:33;12.90;63.00
19567;DHT22;9930;49.240;8.548;2024-03-08T15:56:06;12.90;62.90
19567;DHT22;9930;49.240;8.548;2024-03-08T15:58:34;12.90;62.80
19567;DHT22;9930;49.240;8.548;2024-03-08T16:01:04;12.90;62.90
19567;DHT22;9930;49.240;8.548;2024-03-08T16:03:33;12.90;62.90
19567;DHT22;9930;49.240;8.548;2024-03-08T16:05:59;12.90;63.10
19567;DHT22;9930;49.240;8.548;2024-03-08T16:08:25;12.90;62.80
19567;DHT22;9930;49.240;8.548;2024-03-08T16:10:53;12.90;62.90
19567;DHT22;9930;49.240;8.548;2024-03-08T16:13:21;12.90;62.80
19567;DHT22;9930;49.240;8.548;2024-03-08T16:15:52;12.90;62.70
19567;DHT22;9930;49.240;8.548;2024-03-08T16:18:20;12.90;63.50
19567;DHT22;9930;49.240;8.548;2024-03-08T16:20:49;12.90;62.70